Time;durP1;ratioP1;P1;durP2;ratioP2;P2;SDS_P1;SDS_P2;PMS_P1;PMS_P2;Temp;Humidity;BMP_temperature;BMP_pressure;BME280_temperature;BME280_humidity;BME280_pressure;Samples;Min_cycle;Max_cycle;Signal;HPM_P1;HPM_P2
2022/03/10 00:01:16;;;;;;;31.38;16.98;;;;;;;5.81;63.49;102368.31;5074193;28;20412;-30
2022/03/10 00:03:44;;;;;;;28.65;17.65;;;;;;;5.77;63.77;102367.97;5074473;28;20056;-26
2022/03/10 00:06:13;;;;;;;27.88;17.13;;;;;;;5.76;63.87;102374.56;5073704;28;20040;-31
2022/03/10 00:08:40;;;;;;;29.65;16.63;;;;;;;5.72;64.01;102370.56;5063527;28;20040;-33
2022/03/10 00:11:09;;;;;;;24.98;15.30;;;;;;;5.72;64.08;102370.56;5073741;28;20079;-30
2022/03/10 00:13:38;;;;;;;27.98;15.90;;;;;;;5.68;64.04;102366.56;5072410;28;20061;-31
2022/03/10 00:16:05;;;;;;;30.23;16.30;;;;;;;5.65;64.30;102366.16;5074130;28;20048;-30
2022/03/10 00:18:33;;;;;;;27.67;17.13;;;;;;;5.62;64.43;102364.69;5069682;28;20094;-30
2022/03/10 00:21:01;;;;;;;30.48;17.52;;;;;;;5.60;64.85;102366.84;5073839;28;20109;-30
2022/03/10 00:23:29;;;;;;;30.42;17.77;;;;;;;5.56;65.03;102360.09;5072875;28;20091;-35
2022/03/10 00:25:57;;;;;;;29.35;17.25;;;;;;;5.54;65.05;102359.47;5070829;28;20044;-30
2022/03/10 00:28:24;;;;;;;30.70;17.38;;;;;;;5.52;65.27;102354.16;5072026;28;20059;-28
2022/03/10 00:30:53;;;;;;;29.35;17.45;;;;;;;5.48;65.48;102358.47;5072056;28;20040;-27
2022/03/10 00:33:22;;;;;;;28.08;18.00;;;;;;;5.48;65.36;102355.69;5070956;28;20144;-30
2022/03/10 00:35:49;;;;;;;29.58;17.88;;;;;;;5.47;65.42;102362.31;5071542;28;20457;-28
2022/03/10 00:38:18;;;;;;;27.10;16.80;;;;;;;5.47;65.17;102353.16;5071111;28;20102;-29
2022/03/10 00:40:48;;;;;;;30.58;17.30;;;;;;;5.47;65.12;102359.53;5071406;28;20048;-29
2022/03/10 00:43:16;;;;;;;25.73;15.32;;;;;;;5.49;65.17;102356.53;5073632;28;20060;-27
2022/03/10 00:45:44;;;;;;;27.92;16.10;;;;;;;5.48;65.03;102349.31;5073517;28;20048;-29
2022/03/10 00:48:13;;;;;;;30.42;17.50;;;;;;;5.48;64.65;102349.31;5072524;28;20135;-32
2022/03/10 00:50:41;;;;;;;28.15;16.00;;;;;;;5.47;64.62;102353.16;5072385;28;20036;-34
2022/03/10 00:53:08;;;;;;;28.45;16.63;;;;;;;5.47;64.58;102356.78;5062375;28;20074;-26
2022/03/10 00:55:36;;;;;;;25.95;15.38;;;;;;;5.48;64.33;102357.63;5072786;28;20044;-34
2022/03/10 00:58:04;;;;;;;28.30;16.08;;;;;;;5.43;64.35;102358.28;5072902;28;20040;-33
2022/03/10 01:00:32;;;;;;;26.90;15.90;;;;;;;5.41;64.65;102363.22;5072467;28;20076;-34
2022/03/10 01:03:00;;;;;;;30.83;17.30;;;;;;;5.36;64.79;102343.69;5073033;28;20062;-28
2022/03/10 01:05:29;;;;;;;27.00;16.17;;;;;;;5.34;64.98;102350.53;5073267;28;20105;-34
2022/03/10 01:07:57;;;;;;;28.00;16.13;;;;;;;5.31;64.95;102342.69;5072033;28;20469;-30
2022/03/10 01:10:25;;;;;;;27.95;16.00;;;;;;;5.29;65.08;102336.53;5073216;28;20044;-29
2022/03/10 01:12:53;;;;;;;23.27;14.73;;;;;;;5.25;65.27;102336.13;5072888;28;20072;-29
2022/03/10 01:15:24;;;;;;;30.65;16.77;;;;;;;5.22;65.49;102338.50;5071341;28;20040;-32
2022/03/10 01:17:56;;;;;;;29.73;17.60;;;;;;;5.19;65.52;102343.44;5072984;28;20055;-29
2022/03/10 01:20:25;;;;;;;25.67;15.10;;;;;;;5.17;65.85;102341.97;5072690;28;20512;-33
2022/03/10 01:22:55;;;;;;;29.25;17.17;;;;;;;5.18;66.05;102344.50;5072100;28;20418;-29
2022/03/10 01:25:23;;;;;;;26.33;16.55;;;;;;;5.18;65.89;102338.13;5072761;28;20058;-28
2022/03/10 01:27:51;;;;;;;30.92;17.83;;;;;;;5.16;66.04;102337.50;5072613;28;20565;-31
2022/03/10 01:30:19;;;;;;;27.13;16.00;;;;;;;5.16;65.88;102335.59;5071600;28;20052;-35
2022/03/10 01:32:47;;;;;;;28.98;17.48;;;;;;;5.16;66.23;102349.44;5063717;28;20051;-27
2022/03/10 01:35:16;;;;;;;26.67;16.55;;;;;;;5.16;65.72;102349.44;5072633;28;20045;-33
2022/03/10 01:37:44;;;;;;;26.35;15.13;;;;;;;5.16;65.81;102352.19;5071595;28;20044;-31
2022/03/10 01:40:15;;;;;;;24.17;14.50;;;;;;;5.14;65.75;102353.47;5072174;28;20080;-30
2022/03/10 01:42:43;;;;;;;24.15;14.38;;;;;;;5.13;65.60;102347.09;5071577;28;20049;-28
2022/03/10 01:45:12;;;;;;;22.35;14.32;;;;;;;5.12;65.54;102350.94;5072781;28;20049;-31
2022/03/10 01:47:41;;;;;;;26.42;15.45;;;;;;;5.12;65.13;102348.19;5072546;28;20044;-28
2022/03/10 01:50:11;;;;;;;28.88;16.20;;;;;;;5.12;65.05;102350.09;5071381;28;20205;-29
2022/03/10 01:52:40;;;;;;;27.10;15.27;;;;;;;5.12;65.01;102352.88;5072234;28;20037;-29
2022/03/10 01:55:09;;;;;;;28.67;16.15;;;;;;;5.11;64.81;102346.47;5072131;28;20072;-33
2022/03/10 01:57:40;;;;;;;26.15;15.65;;;;;;;5.12;64.43;102348.19;5071342;28;20405;-31
2022/03/10 02:00:09;;;;;;;26.48;16.50;;;;;;;5.12;64.37;102352.88;5072314;28;20405;-29
2022/03/10 02:02:37;;;;;;;30.77;15.55;;;;;;;5.13;64.33;102346.25;5071924;28;20053;-33
2022/03/10 02:05:06;;;;;;;26.90;15.65;;;;;;;5.12;64.05;102348.19;5071173;28;20136;-29
2022/03/10 02:10:31;;;;;;;30.20;16.42;;;;;;;5.09;64.03;102354.16;4995834;28;20049;-25
2022/03/10 02:13:00;;;;;;;29.20;16.60;;;;;;;5.09;63.83;102354.16;5052136;28;20424;-32
2022/03/10 02:18:17;;;;;;;27.17;15.48;;;;;;;5.06;63.94;102362.91;5062194;28;20045;-27
2022/03/10 02:20:45;;;;;;;29.52;15.77;;;;;;;5.05;64.10;102357.59;5071729;28;20063;-29
2022/03/10 02:23:17;;;;;;;27.70;16.35;;;;;;;5.05;64.02;102361.22;5071790;28;20063;-29
2022/03/10 02:25:47;;;;;;;26.50;15.77;;;;;;;5.02;64.09;102360.81;5070771;28;20044;-28
2022/03/10 02:28:21;;;;;;;29.38;16.98;;;;;;;5.01;64.14;102359.97;5071794;28;20506;-32
2022/03/10 02:30:49;;;;;;;27.80;15.88;;;;;;;4.99;64.41;102364.06;5070146;28;20037;-29
2022/03/10 02:33:18;;;;;;;28.17;17.13;;;;;;;4.95;64.50;102360.88;5070961;28;20127;-26
2022/03/10 02:35:46;;;;;;;27.58;16.10;;;;;;;4.94;64.35;102364.72;5071267;28;20055;-31
2022/03/10 02:38:17;;;;;;;30.42;16.70;;;;;;;4.95;64.41;102369.19;5071588;28;20052;-29
2022/03/10 02:40:45;;;;;;;26.20;15.00;;;;;;;4.94;64.38;102367.50;5070709;28;20049;-33
2022/03/10 02:43:13;;;;;;;29.67;16.83;;;;;;;4.95;64.19;102371.94;5071167;28;20490;-32
2022/03/10 02:45:41;;;;;;;28.65;17.70;;;;;;;4.93;64.51;102367.72;5071676;28;20418;-26
2022/03/10 02:48:09;;;;;;;26.38;15.77;;;;;;;4.92;64.46;102366.88;5070496;28;20049;-28
2022/03/10 02:50:36;;;;;;;28.85;16.17;;;;;;;4.92;64.37;102364.09;5071482;28;20044;-29
2022/03/10 02:53:05;;;;;;;27.75;16.83;;;;;;;4.90;64.23;102360.72;5070444;28;20044;-27
2022/03/10 02:55:34;;;;;;;29.35;16.52;;;;;;;4.94;64.03;102361.09;5062838;28;20062;-28
2022/03/10 02:58:02;;;;;;;28.80;16.50;;;;;;;4.94;64.20;102369.41;5071066;28;20055;-32
2022/03/10 03:00:30;;;;;;;25.13;14.75;;;;;;;4.94;63.96;102375.78;5070616;28;20151;-29
2022/03/10 03:02:58;;;;;;;24.13;14.65;;;;;;;4.93;64.00;102370.47;5071343;28;20041;-29
2022/03/10 03:05:26;;;;;;;28.92;15.70;;;;;;;4.91;64.00;102367.09;5071332;28;20044;-34
2022/03/10 03:07:53;;;;;;;26.58;15.35;;;;;;;4.90;63.81;102369.00;5070403;28;20082;-34
2022/03/10 03:10:21;;;;;;;26.50;16.25;;;;;;;4.87;64.12;102363.91;5071010;28;20052;-26
2022/03/10 03:12:52;;;;;;;30.17;17.33;;;;;;;4.86;64.24;102370.53;5071230;28;20048;-34
2022/03/10 03:15:20;;;;;;;25.50;15.70;;;;;;;4.87;64.18;102376.91;5070770;28;20068;-26
2022/03/10 03:17:48;;;;;;;26.52;16.05;;;;;;;4.85;64.07;102369.66;5071276;28;20047;-25
2022/03/10 03:20:16;;;;;;;28.55;16.48;;;;;;;4.83;64.21;102374.56;5071224;28;20442;-26
2022/03/10 03:22:47;;;;;;;25.90;15.65;;;;;;;4.83;64.20;102376.50;5073038;28;20131;-32
2022/03/10 03:25:16;;;;;;;25.88;15.20;;;;;;;4.80;64.55;102376.94;5065754;28;20056;-27
2022/03/10 03:27:46;;;;;;;25.40;15.52;;;;;;;4.78;64.88;102379.09;5074342;28;20073;-32
2022/03/10 03:30:16;;;;;;;26.80;16.33;;;;;;;4.79;65.26;102380.81;5074497;28;20051;-31
2022/03/10 03:32:45;;;;;;;25.67;16.05;;;;;;;4.75;65.50;102380.41;5074653;28;20051;-30
2022/03/10 03:35:14;;;;;;;24.70;15.60;;;;;;;4.74;65.84;102372.31;5074416;28;20048;-31
2022/03/10 03:37:42;;;;;;;24.60;14.63;;;;;;;4.71;66.01;102381.91;5074896;28;20072;-37
2022/03/10 03:40:11;;;;;;;23.05;14.85;;;;;;;4.70;66.58;102371.06;5074114;28;20052;-32
2022/03/10 03:42:39;;;;;;;26.17;15.55;;;;;;;4.66;67.43;102370.66;5074095;28;20417;-32
2022/03/10 03:45:09;;;;;;;23.08;14.95;;;;;;;4.67;67.31;102377.88;5074602;28;20481;-30
2022/03/10 03:47:38;;;;;;;27.15;15.07;;;;;;;4.66;67.74;102373.44;5074670;28;20435;-27
2022/03/10 03:50:07;;;;;;;27.08;16.08;;;;;;;4.65;67.97;102374.50;5074264;28;20052;-29
2022/03/10 03:52:34;;;;;;;26.80;15.85;;;;;;;4.65;68.65;102376.41;5074585;28;20045;-31
2022/03/10 03:55:07;;;;;;;;;;;;;;;4.61;69.91;102384.28;5075020;28;20052;-28
2022/03/10 03:57:35;;;;;;;29.00;15.68;;;;;;;4.54;70.00;102383.50;5073675;28;19924;-29
2022/03/10 04:00:04;;;;;;;25.98;16.38;;;;;;;4.55;69.84;102390.72;5074364;28;20139;-31
2022/03/10 04:02:36;;;;;;;32.58;17.40;;;;;;;4.54;70.19;102382.66;5074376;28;20052;-32
2022/03/10 04:05:06;;;;;;;28.52;16.65;;;;;;;4.49;70.53;102381.41;5073625;28;20421;-30
2022/03/10 04:07:33;;;;;;;27.10;17.30;;;;;;;4.48;71.05;102389.91;5074339;28;20061;-29
2022/03/10 04:10:01;;;;;;;29.55;16.25;;;;;;;4.43;71.67;102384.19;5074332;28;20041;-26
2022/03/10 04:12:29;;;;;;;26.40;16.13;;;;;;;4.39;72.67;102383.81;5073404;28;20052;-36
2022/03/10 04:14:57;;;;;;;25.20;16.08;;;;;;;4.35;73.07;102384.47;5074065;28;20416;-30
2022/03/10 04:17:24;;;;;;;27.67;15.85;;;;;;;4.33;72.86;102383.84;5073899;28;20062;-26
2022/03/10 04:19:52;;;;;;;29.33;17.10;;;;;;;4.32;73.03;102391.28;5074094;28;20070;-31
2022/03/10 04:22:21;;;;;;;25.88;15.50;;;;;;;4.30;73.42;102393.41;5074063;28;20386;-31
2022/03/10 04:24:49;;;;;;;26.95;17.35;;;;;;;4.29;73.74;102391.72;5073187;28;20050;-36
2022/03/10 04:27:19;;;;;;;28.95;17.48;;;;;;;4.29;73.88;102394.47;5063302;28;20040;-33
2022/03/10 04:29:47;;;;;;;29.00;17.67;;;;;;;4.28;74.12;102394.69;5071288;28;20381;-35
2022/03/10 04:32:15;;;;;;;25.08;15.48;;;;;;;4.27;74.11;102390.25;5071902;28;20052;-28
2022/03/10 04:34:43;;;;;;;27.77;16.88;;;;;;;4.25;74.22;102392.38;5071060;28;20124;-26
2022/03/10 04:37:11;;;;;;;28.02;15.77;;;;;;;4.23;74.54;102387.06;5069525;28;20055;-30
2022/03/10 04:39:40;;;;;;;26.33;16.08;;;;;;;4.22;74.54;102393.66;5072774;28;20056;-27
2022/03/10 04:42:08;;;;;;;27.13;15.30;;;;;;;4.17;75.29;102393.50;5073210;28;20477;-33
2022/03/10 04:44:35;;;;;;;27.77;15.60;;;;;;;4.17;75.03;102401.78;5071518;28;20053;-32
2022/03/10 04:47:04;;;;;;;26.13;16.27;;;;;;;4.13;75.65;102392.22;5070634;28;20044;-33
2022/03/10 04:49:32;;;;;;;24.13;14.82;;;;;;;4.12;75.52;102390.53;5071312;28;20485;-27
2022/03/10 04:51:59;;;;;;;24.48;15.90;;;;;;;4.08;76.07;102392.88;5071341;28;20395;-31
2022/03/10 04:54:27;;;;;;;26.30;16.45;;;;;;;4.06;76.31;102394.16;5070500;28;20060;-27
2022/03/10 04:56:56;;;;;;;29.08;16.92;;;;;;;4.04;76.50;102394.38;5071467;28;20548;-30
2022/03/10 04:59:25;;;;;;;28.40;17.00;;;;;;;4.01;76.64;102394.81;5073200;28;20045;-29
2022/03/10 05:01:52;;;;;;;24.80;15.85;;;;;;;3.99;77.18;102396.13;5072608;28;20048;-31
2022/03/10 05:04:22;;;;;;;28.02;16.20;;;;;;;3.97;77.06;102399.09;5073180;28;20045;-28
2022/03/10 05:06:50;;;;;;;29.30;17.88;;;;;;;3.93;77.92;102399.72;5072209;28;20047;-27
2022/03/10 05:09:17;;;;;;;28.15;16.83;;;;;;;3.91;78.00;102402.72;5073174;28;20044;-30
2022/03/10 05:11:45;;;;;;;26.80;15.95;;;;;;;3.87;78.46;102400.59;5073024;28;20059;-29
2022/03/10 05:14:14;;;;;;;30.02;17.92;;;;;;;3.85;78.26;102403.56;5072230;28;20367;-33
2022/03/10 05:16:42;;;;;;;28.20;16.73;;;;;;;3.83;78.37;102402.09;5072841;28;20043;-26
2022/03/10 05:19:10;;;;;;;26.98;17.17;;;;;;;3.78;79.17;102400.00;5073062;28;20083;-34
2022/03/10 05:21:38;;;;;;;28.08;16.55;;;;;;;3.77;79.32;102404.66;5071807;28;20096;-28
2022/03/10 05:24:06;;;;;;;24.42;15.75;;;;;;;3.76;79.52;102402.97;5073052;28;20405;-32
2022/03/10 05:26:38;;;;;;;28.58;17.05;;;;;;;3.75;80.21;102400.44;5072374;28;20456;-25
2022/03/10 05:29:06;;;;;;;27.58;17.25;;;;;;;3.75;80.36;102401.28;5072498;28;20106;-31
2022/03/10 05:31:35;;;;;;;28.08;17.58;;;;;;;3.73;80.63;102400.63;5072467;28;20083;-31
2022/03/10 05:34:03;;;;;;;27.50;17.45;;;;;;;3.71;81.65;102408.28;5072584;28;20155;-31
2022/03/10 05:36:31;;;;;;;30.58;18.17;;;;;;;3.72;81.27;102398.09;5072106;28;20070;-27
2022/03/10 05:38:59;;;;;;;29.33;17.42;;;;;;;3.70;81.87;102398.31;5071737;28;20490;-28
2022/03/10 05:41:26;;;;;;;30.98;18.08;;;;;;;3.71;81.61;102393.63;5072634;28;20053;-30
2022/03/10 05:43:54;;;;;;;28.88;16.85;;;;;;;3.67;82.04;102395.13;5071319;28;20102;-31
2022/03/10 05:46:22;;;;;;;31.35;18.30;;;;;;;3.63;82.82;102396.63;5072334;28;20047;-32
2022/03/10 05:48:52;;;;;;;30.67;18.38;;;;;;;3.60;83.20;102391.53;5071509;28;20139;-31
2022/03/10 05:51:21;;;;;;;29.88;17.85;;;;;;;3.54;83.98;102393.25;5072135;28;20060;-28
2022/03/10 05:53:49;;;;;;;30.98;19.50;;;;;;;3.53;84.21;102396.22;5071738;28;20049;-33
2022/03/10 05:56:17;;;;;;;31.40;18.30;;;;;;;3.47;85.57;102395.16;5071004;28;20052;-28
2022/03/10 05:58:46;;;;;;;28.10;17.58;;;;;;;3.45;85.59;102398.13;5070215;28;20079;-33
2022/03/10 06:01:14;;;;;;;27.80;17.15;;;;;;;3.43;86.13;102396.66;5069528;28;20055;-28
2022/03/10 06:03:43;;;;;;;29.08;18.33;;;;;;;3.41;86.93;102404.28;5069772;28;20048;-28
2022/03/10 06:06:13;;;;;;;34.20;18.80;;;;;;;3.39;87.20;102403.69;5071202;28;20066;-28
2022/03/10 06:08:42;;;;;;;31.95;19.20;;;;;;;3.38;87.27;102402.00;5060897;28;20165;-34
2022/03/10 06:11:10;;;;;;;34.17;20.40;;;;;;;3.36;88.30;102404.97;5070990;28;20052;-34
2022/03/10 06:13:37;;;;;;;29.52;18.35;;;;;;;3.36;87.96;102401.34;5071399;28;20468;-34
2022/03/10 06:16:06;;;;;;;30.35;18.45;;;;;;;3.35;87.76;102402.41;5072008;28;20052;-30
2022/03/10 06:18:33;;;;;;;33.55;20.60;;;;;;;3.34;88.34;102400.72;5067592;28;20068;-28
2022/03/10 06:21:01;;;;;;;31.65;18.67;;;;;;;3.32;88.67;102400.91;5071862;28;20059;-29
2022/03/10 06:23:30;;;;;;;29.63;18.25;;;;;;;3.32;88.67;102400.91;5071308;28;20052;-28
2022/03/10 06:25:58;;;;;;;32.17;19.55;;;;;;;3.32;89.19;102408.34;5070982;28;20047;-31
2022/03/10 06:28:26;;;;;;;33.03;18.98;;;;;;;3.33;89.28;102407.28;5071233;28;20043;-30
2022/03/10 06:30:53;;;;;;;29.70;18.02;;;;;;;3.34;89.94;102403.47;5071263;28;20048;-27
2022/03/10 06:33:21;;;;;;;27.98;17.48;;;;;;;3.35;90.66;102405.16;5069774;28;20041;-34
2022/03/10 06:35:49;;;;;;;29.73;19.10;;;;;;;3.38;90.15;102413.03;5070577;28;20044;-29
2022/03/10 06:38:17;;;;;;;33.13;19.40;;;;;;;3.38;91.22;102404.75;5069574;28;20064;-35
2022/03/10 06:40:46;;;;;;;31.88;19.13;;;;;;;3.39;91.57;102406.44;5070145;28;20048;-29
2022/03/10 06:43:13;;;;;;;32.13;19.10;;;;;;;3.43;91.73;102415.97;5070120;28;20038;-29
2022/03/10 06:45:41;;;;;;;32.75;19.23;;;;;;;3.46;92.06;102416.38;5069303;28;20547;-33
2022/03/10 06:48:10;;;;;;;30.33;19.15;;;;;;;3.51;91.95;102417.66;5070242;28;20036;-31
2022/03/10 06:50:38;;;;;;;32.00;19.58;;;;;;;3.54;92.34;102423.63;5068111;28;20437;-30
2022/03/10 06:53:06;;;;;;;32.30;19.20;;;;;;;3.57;92.85;102414.06;5069338;28;20053;-31
2022/03/10 06:55:34;;;;;;;30.35;18.65;;;;;;;3.60;92.83;102425.50;5069649;28;20044;-33
2022/03/10 06:58:03;;;;;;;35.00;20.60;;;;;;;3.64;93.15;102424.00;5069680;28;20445;-34
2022/03/10 07:00:30;;;;;;;33.88;20.00;;;;;;;3.69;93.26;102429.75;5069430;28;20052;-32
2022/03/10 07:03:01;;;;;;;31.15;19.25;;;;;;;3.77;93.63;102423.16;5070098;28;20048;-34
2022/03/10 07:05:29;;;;;;;33.20;20.60;;;;;;;3.91;94.01;102422.03;5069984;28;20048;-32
2022/03/10 07:07:57;;;;;;;32.70;19.98;;;;;;;4.12;93.54;102430.06;5068794;28;20053;-31
2022/03/10 07:10:26;;;;;;;29.55;18.88;;;;;;;4.39;92.82;102430.78;5069685;28;20489;-30
2022/03/10 07:12:54;;;;;;;31.25;19.67;;;;;;;4.69;91.77;102431.03;5070022;28;20114;-29
2022/03/10 07:15:23;;;;;;;33.15;19.85;;;;;;;5.02;89.99;102436.34;5068916;28;20413;-26
2022/03/10 07:17:52;;;;;;;32.92;19.02;;;;;;;5.30;87.96;102435.94;5070150;28;20541;-28
2022/03/10 07:20:20;;;;;;;29.10;17.30;;;;;;;5.52;86.20;102430.84;5068339;28;20047;-29
2022/03/10 07:22:48;;;;;;;28.40;17.70;;;;;;;5.78;85.33;102435.28;5070229;28;20048;-26
2022/03/10 07:25:16;;;;;;;32.72;18.73;;;;;;;6.00;82.79;102439.31;5069957;28;20055;-29
2022/03/10 07:27:44;;;;;;;30.85;19.48;;;;;;;6.15;81.77;102436.19;5068862;28;20049;-31
2022/03/10 07:30:13;;;;;;;29.70;18.30;;;;;;;6.34;80.29;102434.25;5070700;28;20390;-29
2022/03/10 07:32:42;;;;;;;29.95;18.23;;;;;;;6.55;78.60;102436.53;5069888;28;20080;-28
2022/03/10 07:35:10;;;;;;;28.73;17.52;;;;;;;6.73;77.62;102432.88;5069284;28;20072;-31
2022/03/10 07:37:38;;;;;;;27.25;17.35;;;;;;;6.97;76.92;102442.97;5069130;28;20049;-31
2022/03/10 07:40:07;;;;;;;28.08;18.65;;;;;;;7.22;75.64;102438.06;5070269;28;20139;-32
2022/03/10 07:42:35;;;;;;;28.70;17.90;;;;;;;7.48;74.39;102435.94;5069500;28;20044;-36
2022/03/10 07:45:04;;;;;;;28.75;18.33;;;;;;;7.70;72.73;102433.41;5070461;28;20372;-33
2022/03/10 07:47:32;;;;;;;28.23;17.80;;;;;;;7.83;72.35;102434.00;5070457;28;20481;-39
2022/03/10 07:50:04;;;;;;;26.92;17.90;;;;;;;7.98;71.21;102436.31;5070151;28;20040;-31
2022/03/10 07:52:32;;;;;;;29.40;17.88;;;;;;;8.08;70.58;102433.75;5070625;28;20055;-33
2022/03/10 07:55:05;;;;;;;28.60;18.10;;;;;;;8.25;69.99;102451.38;5070695;28;20040;-31
2022/03/10 07:57:34;;;;;;;30.13;18.60;;;;;;;8.40;69.13;102434.19;5069674;28;20390;-37
2022/03/10 08:00:04;;;;;;;29.48;17.63;;;;;;;8.51;67.83;102438.88;5070334;28;20474;-32
2022/03/10 08:02:35;;;;;;;27.25;17.35;;;;;;;8.75;67.98;102430.44;5069953;28;20416;-35
2022/03/10 08:05:05;;;;;;;27.00;17.83;;;;;;;9.00;67.23;102425.34;5070683;28;20044;-33
2022/03/10 08:07:34;;;;;;;27.02;17.63;;;;;;;9.13;65.57;102432.56;5070592;28;20052;-39
2022/03/10 08:10:03;;;;;;;26.95;17.30;;;;;;;9.22;64.95;102428.25;5072634;28;20177;-33
2022/03/10 08:12:33;;;;;;;27.60;18.48;;;;;;;9.32;64.98;102428.44;5073911;28;20052;-32
2022/03/10 08:15:02;;;;;;;27.23;17.48;;;;;;;9.48;64.03;102433.16;5074342;28;20412;-34
2022/03/10 08:17:30;;;;;;;29.23;19.13;;;;;;;9.59;62.44;102437.78;5069805;28;20048;-34
2022/03/10 08:19:58;;;;;;;30.77;18.70;;;;;;;9.74;62.16;102428.00;5074088;28;20085;-31
2022/03/10 08:22:27;;;;;;;25.75;16.80;;;;;;;9.86;62.13;102431.50;5073551;28;20528;-33
2022/03/10 08:24:55;;;;;;;28.17;16.58;;;;;;;10.03;61.46;102427.59;5072983;28;20094;-29
2022/03/10 08:27:23;;;;;;;27.02;17.23;;;;;;;10.18;60.38;102424.19;5073799;28;20125;-29
2022/03/10 08:29:50;;;;;;;28.02;17.55;;;;;;;10.38;59.79;102420.84;5074033;28;20044;-36
2022/03/10 08:32:19;;;;;;;27.42;18.05;;;;;;;10.57;58.48;102422.19;5071764;28;20080;-30
2022/03/10 08:34:47;;;;;;;26.77;17.17;;;;;;;10.68;58.21;102409.19;5073625;28;20601;-35
2022/03/10 08:37:15;;;;;;;26.10;17.92;;;;;;;10.56;57.71;102412.13;5073629;28;20063;-32
2022/03/10 08:39:44;;;;;;;27.25;17.52;;;;;;;10.77;58.42;102412.38;5072784;28;20134;-32
2022/03/10 08:42:12;;;;;;;26.10;17.02;;;;;;;11.10;56.95;102414.94;5073879;28;20048;-28
2022/03/10 08:44:40;;;;;;;26.55;17.25;;;;;;;11.21;55.84;102416.69;5073583;28;20055;-33
2022/03/10 08:47:08;;;;;;;27.92;17.17;;;;;;;11.32;56.24;102409.28;5073403;28;20044;-31
2022/03/10 08:49:36;;;;;;;27.42;18.05;;;;;;;11.38;55.20;102406.25;5073550;28;20489;-31
2022/03/10 08:52:04;;;;;;;26.70;18.05;;;;;;;11.52;55.61;102412.22;5072895;28;20823;-31
2022/03/10 08:54:32;;;;;;;27.92;18.52;;;;;;;11.62;54.91;102414.25;5073350;28;20140;-32
2022/03/10 08:57:01;;;;;;;27.13;17.80;;;;;;;11.83;54.65;102399.31;5073477;28;20089;-30
2022/03/10 08:59:29;;;;;;;24.95;16.85;;;;;;;11.93;53.78;102402.19;5072876;28;20051;-28
2022/03/10 09:01:57;;;;;;;27.35;18.35;;;;;;;12.13;53.66;102401.47;5073278;28;20076;-32
2022/03/10 09:04:26;;;;;;;27.83;18.73;;;;;;;12.23;53.04;102395.06;5072796;28;20049;-29
2022/03/10 09:06:54;;;;;;;25.08;17.60;;;;;;;12.30;52.59;102390.91;5072542;28;20118;-33
2022/03/10 09:09:21;;;;;;;26.60;18.13;;;;;;;12.40;52.69;102390.09;5072988;28;20044;-33
2022/03/10 09:11:49;;;;;;;27.95;18.08;;;;;;;12.45;51.98;102392.91;5073081;28;20071;-32
2022/03/10 09:14:18;;;;;;;27.77;17.83;;;;;;;12.62;52.66;102398.28;5072015;28;20041;-31
2022/03/10 09:16:46;;;;;;;27.83;18.33;;;;;;;12.76;51.71;102389.13;5073125;28;20124;-32
2022/03/10 09:19:14;;;;;;;27.45;18.15;;;;;;;12.87;50.90;102392.75;5072221;28;20413;-33
2022/03/10 09:21:42;;;;;;;25.08;16.02;;;;;;;13.15;51.35;102393.38;5072489;28;20048;-33
2022/03/10 09:24:10;;;;;;;27.70;16.55;;;;;;;13.52;50.69;102399.56;5072686;28;20052;-33
2022/03/10 09:26:38;;;;;;;25.25;17.50;;;;;;;13.85;48.15;102395.31;5072419;28;20131;-29
2022/03/10 09:29:06;;;;;;;24.83;17.20;;;;;;;13.88;48.30;102391.94;5071654;28;20505;-33
2022/03/10 09:31:35;;;;;;;22.92;15.98;;;;;;;14.24;48.42;102391.81;5072370;28;20094;-34
2022/03/10 09:34:04;;;;;;;23.33;15.68;;;;;;;14.50;46.69;102390.63;5071947;28;20071;-43
2022/03/10 09:36:32;;;;;;;25.48;16.63;;;;;;;14.67;45.38;102393.91;5072639;28;20450;-35
2022/03/10 09:39:00;;;;;;;24.85;16.45;;;;;;;14.55;45.01;102382.19;5064039;28;20457;-34
2022/03/10 09:41:28;;;;;;;26.30;16.23;;;;;;;14.55;45.47;102376.56;5071590;28;20256;-31
2022/03/10 09:43:57;;;;;;;23.90;16.23;;;;;;;14.66;44.93;102383.78;5072123;28;20079;-28
2022/03/10 09:46:25;;;;;;;24.30;16.75;;;;;;;14.69;43.86;102377.59;5072386;28;20143;-31
2022/03/10 09:48:55;;;;;;;27.13;17.95;;;;;;;14.64;43.79;102372.00;5071731;28;20047;-33
2022/03/10 09:51:23;;;;;;;24.35;16.55;;;;;;;14.53;43.39;102367.56;5072248;28;20059;-32
2022/03/10 09:53:51;;;;;;;26.42;16.80;;;;;;;14.48;43.20;102367.59;5072118;28;20589;-37
2022/03/10 09:56:21;;;;;;;25.98;16.75;;;;;;;14.38;43.36;102373.25;5071342;28;20063;-32
2022/03/10 09:58:49;;;;;;;25.70;17.35;;;;;;;14.36;43.18;102367.06;5072049;28;20044;-32
2022/03/10 10:01:16;;;;;;;28.70;17.38;;;;;;;14.17;42.12;102377.25;5072158;28;20500;-34
2022/03/10 10:03:44;;;;;;;28.33;17.65;;;;;;;14.16;42.67;102376.44;5071407;28;20381;-31
2022/03/10 10:06:13;;;;;;;27.65;17.73;;;;;;;14.24;42.63;102373.00;5071872;28;20041;-32
2022/03/10 10:08:42;;;;;;;24.88;16.58;;;;;;;14.10;43.37;102364.38;5061331;28;20049;-37
2022/03/10 10:11:14;;;;;;;27.02;17.35;;;;;;;14.17;43.26;102375.28;5069903;28;20394;-32
2022/03/10 10:13:45;;;;;;;24.83;17.05;;;;;;;14.14;43.22;102364.63;5072340;28;20041;-29
2022/03/10 10:16:15;;;;;;;25.33;17.13;;;;;;;14.13;43.18;102369.41;5070777;28;20044;-30
2022/03/10 10:18:46;;;;;;;26.65;17.95;;;;;;;14.07;42.87;102370.53;5072121;28;20135;-35
2022/03/10 10:21:21;;;;;;;27.95;17.17;;;;;;;14.12;43.00;102373.34;5071413;28;20457;-34
2022/03/10 10:23:50;;;;;;;30.75;17.58;;;;;;;14.22;43.30;102358.41;5067912;28;20158;-32
2022/03/10 10:26:20;;;;;;;24.90;16.85;;;;;;;14.33;42.70;102362.88;5071382;28;20052;-28
2022/03/10 10:28:50;;;;;;;;;;;;;;;14.23;41.05;102357.28;5071869;28;20131;-38
2022/03/10 10:31:20;;;;;;;22.98;15.40;;;;;;;14.46;43.19;102350.19;5070172;28;19920;-34
2022/03/10 10:33:59;;;;;;;26.15;17.55;;;;;;;14.82;42.20;102353.63;5071420;28;20051;-35
2022/03/10 10:36:30;;;;;;;27.33;16.85;;;;;;;14.70;42.23;102356.78;5071684;28;20055;-35
2022/03/10 10:39:07;;;;;;;25.00;16.33;;;;;;;14.70;42.56;102350.34;5070090;28;20048;-32
2022/03/10 10:41:35;;;;;;;26.45;17.58;;;;;;;14.78;42.30;102352.53;5071481;28;20048;-32
2022/03/10 10:44:05;;;;;;;25.80;17.50;;;;;;;14.74;42.04;102346.66;5071148;28;20055;-27
2022/03/10 10:46:34;;;;;;;25.38;17.35;;;;;;;14.76;41.68;102340.75;5070277;28;20128;-29
2022/03/10 10:49:05;;;;;;;25.95;16.73;;;;;;;14.85;41.93;102335.34;5071296;28;20055;-29
2022/03/10 10:51:36;;;;;;;23.60;16.45;;;;;;;14.85;41.68;102338.97;5070812;28;20044;-29
2022/03/10 10:54:07;;;;;;;25.75;17.80;;;;;;;14.95;41.18;102338.09;5071671;28;20041;-29
2022/03/10 10:56:36;;;;;;;25.40;16.90;;;;;;;15.07;41.08;102328.13;5071231;28;20044;-29
2022/03/10 10:59:04;;;;;;;25.35;17.13;;;;;;;15.00;40.81;102332.41;5070198;28;20139;-31
2022/03/10 11:01:35;;;;;;;27.65;18.00;;;;;;;14.90;40.62;102329.69;5071384;28;20135;-29
2022/03/10 11:04:05;;;;;;;26.88;17.90;;;;;;;14.88;40.82;102329.97;5071332;28;20049;-29
2022/03/10 11:06:35;;;;;;;28.98;18.85;;;;;;;14.78;40.82;102318.81;5070138;28;20056;-29
2022/03/10 11:09:03;;;;;;;25.95;17.35;;;;;;;14.77;40.53;102326.41;5070993;28;20044;-32
2022/03/10 11:11:32;;;;;;;25.15;17.08;;;;;;;14.88;40.80;102324.34;5070840;28;20048;-30
2022/03/10 11:14:01;;;;;;;24.83;16.48;;;;;;;14.91;40.95;102318.16;5070212;28;20378;-35
2022/03/10 11:16:30;;;;;;;28.13;17.67;;;;;;;14.89;40.95;102316.75;5071175;28;20101;-26
2022/03/10 11:19:00;;;;;;;26.92;17.50;;;;;;;15.07;41.05;102314.06;5059786;28;20060;-29
2022/03/10 11:22:00;;;;;;;25.25;16.92;;;;;;;15.30;39.34;102320.06;5070260;28;20059;-33
2022/03/10 11:24:57;;;;;;;24.40;16.00;;;;;;;15.39;39.62;102319.09;5062501;28;20080;-29
2022/03/10 11:27:29;;;;;;;24.58;16.15;;;;;;;15.35;40.28;102312.44;5070111;28;20036;-31